sensor_id;sensor_type;location;lat;lon;timestamp;pressure;altitude;pressure_sealevel;temperature;humidity
17260;BME280;8746;49.230;9.220;2023-02-10T00:02:21;101911.25;;;-5.25;100.00
17260;BME280;8746;49.230;9.220;2023-02-10T00:04:47;101901.63;;;-5.29;100.00
17260;BME280;8746;49.230;9.220;2023-02-10T00:07:12;101899.13;;;-5.27;99.91
17260;BME280;8746;49.230;9.220;2023-02-10T00:09:38;101908.00;;;-5.22;99.25
17260;BME280;8746;49.230;9.220;2023-02-10T00:12:03;101913.38;;;-5.18;98.82
17260;BME280;8746;49.230;9.220;2023-02-10T00:14:29;101908.56;;;-5.11;98.31
17260;BME280;8746;49.230;9.220;2023-02-10T00:16:55;101907.44;;;-5.17;98.53
17260;BME280;8746;49.230;9.220;2023-02-10T00:19:24;101919.25;;;-5.20;98.66
17260;BME280;8746;49.230;9.220;2023-02-10T00:21:50;101928.41;;;-5.25;97.70
17260;BME280;8746;49.230;9.220;2023-02-10T00:24:15;101932.31;;;-5.17;98.78
17260;BME280;8746;49.230;9.220;2023-02-10T00:26:41;101939.22;;;-5.31;97.93
17260;BME280;8746;49.230;9.220;2023-02-10T00:29:06;101934.19;;;-5.29;97.51
17260;BME280;8746;49.230;9.220;2023-02-10T00:31:32;101934.53;;;-5.38;98.18
17260;BME280;8746;49.230;9.220;2023-02-10T00:33:57;101934.09;;;-5.46;98.63
17260;BME280;8746;49.230;9.220;2023-02-10T00:36:23;101942.72;;;-5.45;99.24
17260;BME280;8746;49.230;9.220;2023-02-10T00:38:50;101942.09;;;-5.41;99.58
17260;BME280;8746;49.230;9.220;2023-02-10T00:41:18;101943.88;;;-5.55;99.46
17260;BME280;8746;49.230;9.220;2023-02-10T00:43:44;101944.69;;;-5.56;100.00
17260;BME280;8746;49.230;9.220;2023-02-10T00:46:14;101945.19;;;-5.62;100.00
17260;BME280;8746;49.230;9.220;2023-02-10T00:48:40;101941.13;;;-5.58;100.00
17260;BME280;8746;49.230;9.220;2023-02-10T00:51:06;101941.19;;;-5.57;99.32
17260;BME280;8746;49.230;9.220;2023-02-10T00:53:32;101949.81;;;-5.56;98.88
17260;BME280;8746;49.230;9.220;2023-02-10T00:55:58;101952.28;;;-5.58;99.16
17260;BME280;8746;49.230;9.220;2023-02-10T00:58:24;101950.97;;;-5.51;99.17
17260;BME280;8746;49.230;9.220;2023-02-10T01:00:50;101961.78;;;-5.42;98.91
17260;BME280;8746;49.230;9.220;2023-02-10T01:03:16;101965.59;;;-5.50;97.54
17260;BME280;8746;49.230;9.220;2023-02-10T01:05:41;101974.63;;;-5.57;97.54
17260;BME280;8746;49.230;9.220;2023-02-10T01:08:07;101977.84;;;-5.61;97.88
17260;BME280;8746;49.230;9.220;2023-02-10T01:10:34;101976.50;;;-5.69;97.45
17260;BME280;8746;49.230;9.220;2023-02-10T01:13:04;101979.06;;;-5.69;98.86
17260;BME280;8746;49.230;9.220;2023-02-10T01:15:30;101979.53;;;-5.61;98.15
17260;BME280;8746;49.230;9.220;2023-02-10T01:17:55;101977.13;;;-5.73;98.42
17260;BME280;8746;49.230;9.220;2023-02-10T01:20:21;101983.13;;;-5.73;97.92
17260;BME280;8746;49.230;9.220;2023-02-10T01:22:46;101985.00;;;-5.70;98.75
17260;BME280;8746;49.230;9.220;2023-02-10T01:25:12;101985.00;;;-5.70;99.03
17260;BME280;8746;49.230;9.220;2023-02-10T01:27:38;101976.97;;;-5.61;98.20
17260;BME280;8746;49.230;9.220;2023-02-10T01:30:04;101979.25;;;-5.66;98.45
17260;BME280;8746;49.230;9.220;2023-02-10T01:32:29;101980.47;;;-5.59;97.85
17260;BME280;8746;49.230;9.220;2023-02-10T01:34:55;101981.91;;;-5.65;97.52
17260;BME280;8746;49.230;9.220;2023-02-10T01:37:20;101985.00;;;-5.70;97.32
17260;BME280;8746;49.230;9.220;2023-02-10T01:39:46;101986.50;;;-5.74;97.54
17260;BME280;8746;49.230;9.220;2023-02-10T01:42:15;101986.50;;;-5.74;96.86
17260;BME280;8746;49.230;9.220;2023-02-10T01:47:08;101988.69;;;-5.80;96.98
17260;BME280;8746;49.230;9.220;2023-02-10T01:49:41;101999.78;;;-5.81;97.19
17260;BME280;8746;49.230;9.220;2023-02-10T01:52:18;101998.81;;;-5.83;97.61
17260;BME280;8746;49.230;9.220;2023-02-10T01:54:51;102003.06;;;-5.84;97.36
17260;BME280;8746;49.230;9.220;2023-02-10T01:57:17;101994.63;;;-5.81;96.90
17260;BME280;8746;49.230;9.220;2023-02-10T01:59:43;101993.41;;;-5.73;96.49
17260;BME280;8746;49.230;9.220;2023-02-10T02:02:10;101999.00;;;-5.80;96.26
17260;BME280;8746;49.230;9.220;2023-02-10T02:04:58;101997.47;;;-5.91;95.82
17260;BME280;8746;49.230;9.220;2023-02-10T02:07:27;101996.41;;;-5.95;96.25
17260;BME280;8746;49.230;9.220;2023-02-10T02:09:55;102000.50;;;-5.99;96.25
17260;BME280;8746;49.230;9.220;2023-02-10T02:15:26;102004.66;;;-6.01;96.66
17260;BME280;8746;49.230;9.220;2023-02-10T02:31:43;102005.09;;;-6.08;96.72
17260;BME280;8746;49.230;9.220;2023-02-10T02:37:22;101987.91;;;-6.09;97.54
17260;BME280;8746;49.230;9.220;2023-02-10T02:39:50;101985.84;;;-6.15;97.34
17260;BME280;8746;49.230;9.220;2023-02-10T02:42:27;101990.88;;;-6.16;96.35
17260;BME280;8746;49.230;9.220;2023-02-10T02:53:02;102000.53;;;-6.12;97.31
17260;BME280;8746;49.230;9.220;2023-02-10T02:58:42;102004.81;;;-6.13;96.56
17260;BME280;8746;49.230;9.220;2023-02-10T03:01:16;102016.22;;;-6.22;97.33
17260;BME280;8746;49.230;9.220;2023-02-10T03:03:46;102014.22;;;-6.26;96.75
17260;BME280;8746;49.230;9.220;2023-02-10T03:06:11;102014.22;;;-6.26;97.40
17260;BME280;8746;49.230;9.220;2023-02-10T03:08:39;102018.09;;;-6.33;97.02
17260;BME280;8746;49.230;9.220;2023-02-10T03:11:05;102018.28;;;-6.30;97.70
17260;BME280;8746;49.230;9.220;2023-02-10T03:13:30;102021.25;;;-6.37;97.13
17260;BME280;8746;49.230;9.220;2023-02-10T03:15:58;102018.44;;;-6.42;97.39
17260;BME280;8746;49.230;9.220;2023-02-10T03:18:23;102011.09;;;-6.36;97.96
17260;BME280;8746;49.230;9.220;2023-02-10T03:20:49;102017.41;;;-6.31;96.70
17260;BME280;8746;49.230;9.220;2023-02-10T03:23:14;102024.00;;;-6.21;97.44
17260;BME280;8746;49.230;9.220;2023-02-10T03:25:39;102033.78;;;-6.15;97.73
17260;BME280;8746;49.230;9.220;2023-02-10T03:28:05;102045.16;;;-6.25;97.06
17260;BME280;8746;49.230;9.220;2023-02-10T03:30:31;102037.97;;;-6.31;96.98
17260;BME280;8746;49.230;9.220;2023-02-10T03:32:57;102043.69;;;-6.21;96.86
17260;BME280;8746;49.230;9.220;2023-02-10T03:35:22;102036.94;;;-6.19;96.31
17260;BME280;8746;49.230;9.220;2023-02-10T03:37:48;102042.59;;;-6.25;96.66
17260;BME280;8746;49.230;9.220;2023-02-10T03:40:14;102042.47;;;-6.26;96.87
17260;BME280;8746;49.230;9.220;2023-02-10T03:42:40;102041.53;;;-6.29;97.00
17260;BME280;8746;49.230;9.220;2023-02-10T03:45:06;102040.44;;;-6.32;97.55
17260;BME280;8746;49.230;9.220;2023-02-10T03:47:31;102048.16;;;-6.32;97.15
17260;BME280;8746;49.230;9.220;2023-02-10T03:49:56;102046.28;;;-6.35;97.19
17260;BME280;8746;49.230;9.220;2023-02-10T03:52:22;102039.75;;;-6.43;96.84
17260;BME280;8746;49.230;9.220;2023-02-10T03:54:47;102049.34;;;-6.40;96.75
17260;BME280;8746;49.230;9.220;2023-02-10T03:57:12;102050.34;;;-6.38;96.60
17260;BME280;8746;49.230;9.220;2023-02-10T03:59:38;102037.00;;;-6.46;96.39
17260;BME280;8746;49.230;9.220;2023-02-10T04:02:03;102038.38;;;-6.51;96.24
17260;BME280;8746;49.230;9.220;2023-02-10T04:04:29;102041.56;;;-6.55;95.98
17260;BME280;8746;49.230;9.220;2023-02-10T04:06:55;102041.88;;;-6.64;97.08
17260;BME280;8746;49.230;9.220;2023-02-10T04:09:20;102044.91;;;-6.56;97.53
17260;BME280;8746;49.230;9.220;2023-02-10T04:11:45;102041.94;;;-6.49;97.04
17260;BME280;8746;49.230;9.220;2023-02-10T04:14:11;102046.09;;;-6.51;96.86
17260;BME280;8746;49.230;9.220;2023-02-10T04:16:36;102053.78;;;-6.51;96.73
17260;BME280;8746;49.230;9.220;2023-02-10T04:19:02;102048.88;;;-6.48;96.44
17260;BME280;8746;49.230;9.220;2023-02-10T04:21:28;102050.59;;;-6.34;95.82
17260;BME280;8746;49.230;9.220;2023-02-10T04:23:53;102058.72;;;-6.41;95.29
17260;BME280;8746;49.230;9.220;2023-02-10T04:26:19;102056.34;;;-6.51;95.31
17260;BME280;8746;49.230;9.220;2023-02-10T04:28:44;102053.63;;;-6.54;94.92
17260;BME280;8746;49.230;9.220;2023-02-10T04:31:10;102062.59;;;-6.61;95.79
17260;BME280;8746;49.230;9.220;2023-02-10T04:33:36;102059.94;;;-6.63;95.36
17260;BME280;8746;49.230;9.220;2023-02-10T04:36:02;102067.53;;;-6.51;96.32
17260;BME280;8746;49.230;9.220;2023-02-10T04:38:30;102077.50;;;-6.55;95.71
17260;BME280;8746;49.230;9.220;2023-02-10T04:40:56;102070.00;;;-6.66;95.60
17260;BME280;8746;49.230;9.220;2023-02-10T04:43:21;102061.72;;;-6.62;95.77
17260;BME280;8746;49.230;9.220;2023-02-10T04:45:47;102062.00;;;-6.70;95.53
17260;BME280;8746;49.230;9.220;2023-02-10T04:48:12;102063.50;;;-6.74;95.36
17260;BME280;8746;49.230;9.220;2023-02-10T04:50:39;102073.34;;;-6.67;95.29
17260;BME280;8746;49.230;9.220;2023-02-10T04:53:04;102070.69;;;-6.68;95.07
17260;BME280;8746;49.230;9.220;2023-02-10T04:55:30;102074.16;;;-6.68;96.48
17260;BME280;8746;49.230;9.220;2023-02-10T04:57:55;102076.13;;;-6.77;96.95
17260;BME280;8746;49.230;9.220;2023-02-10T05:00:21;102077.91;;;-6.76;97.84
17260;BME280;8746;49.230;9.220;2023-02-10T05:02:46;102075.25;;;-6.78;97.90
17260;BME280;8746;49.230;9.220;2023-02-10T05:05:12;102084.69;;;-6.77;97.22
17260;BME280;8746;49.230;9.220;2023-02-10T05:07:37;102088.34;;;-6.73;96.89
17260;BME280;8746;49.230;9.220;2023-02-10T05:10:04;102090.03;;;-6.73;96.78
17260;BME280;8746;49.230;9.220;2023-02-10T05:12:29;102088.56;;;-6.70;96.34
17260;BME280;8746;49.230;9.220;2023-02-10T05:14:54;102098.44;;;-6.63;96.45
17260;BME280;8746;49.230;9.220;2023-02-10T05:17:20;102099.31;;;-6.62;96.16
17260;BME280;8746;49.230;9.220;2023-02-10T05:19:45;102105.16;;;-6.65;97.58
17260;BME280;8746;49.230;9.220;2023-02-10T05:22:11;102101.00;;;-6.76;96.88
17260;BME280;8746;49.230;9.220;2023-02-10T05:24:36;102105.22;;;-6.77;97.41
17260;BME280;8746;49.230;9.220;2023-02-10T05:27:01;102101.88;;;-6.89;96.68
17260;BME280;8746;49.230;9.220;2023-02-10T05:29:27;102110.09;;;-6.81;97.23
17260;BME280;8746;49.230;9.220;2023-02-10T05:31:52;102104.75;;;-6.84;97.48
17260;BME280;8746;49.230;9.220;2023-02-10T05:34:18;102103.34;;;-6.79;97.11
17260;BME280;8746;49.230;9.220;2023-02-10T05:36:43;102108.88;;;-6.86;96.21
17260;BME280;8746;49.230;9.220;2023-02-10T05:39:09;102112.06;;;-6.77;96.44
17260;BME280;8746;49.230;9.220;2023-02-10T05:41:52;102115.22;;;-6.81;95.60
17260;BME280;8746;49.230;9.220;2023-02-10T05:44:18;102117.47;;;-6.86;96.09
17260;BME280;8746;49.230;9.220;2023-02-10T05:46:43;102112.25;;;-6.87;96.00
17260;BME280;8746;49.230;9.220;2023-02-10T05:49:09;102115.31;;;-6.93;96.40
17260;BME280;8746;49.230;9.220;2023-02-10T05:51:34;102120.16;;;-6.84;96.21
17260;BME280;8746;49.230;9.220;2023-02-10T05:53:59;102131.19;;;-6.85;96.02
17260;BME280;8746;49.230;9.220;2023-02-10T05:56:25;102128.84;;;-6.82;95.66
17260;BME280;8746;49.230;9.220;2023-02-10T05:58:50;102138.41;;;-6.80;95.79
17260;BME280;8746;49.230;9.220;2023-02-10T06:01:16;102132.88;;;-6.86;95.63
17260;BME280;8746;49.230;9.220;2023-02-10T06:03:41;102143.66;;;-6.78;95.57
17260;BME280;8746;49.230;9.220;2023-02-10T06:06:06;102142.25;;;-6.86;95.88
17260;BME280;8746;49.230;9.220;2023-02-10T06:08:32;102152.09;;;-6.93;96.06
17260;BME280;8746;49.230;9.220;2023-02-10T06:10:57;102153.28;;;-7.01;96.05
17260;BME280;8746;49.230;9.220;2023-02-10T06:13:22;102151.50;;;-7.02;96.59
17260;BME280;8746;49.230;9.220;2023-02-10T06:15:48;102153.69;;;-6.95;96.09
17260;BME280;8746;49.230;9.220;2023-02-10T06:18:14;102156.81;;;-6.99;96.17
17260;BME280;8746;49.230;9.220;2023-02-10T06:20:39;102152.38;;;-7.01;96.19
17260;BME280;8746;49.230;9.220;2023-02-10T06:23:04;102156.41;;;-7.05;95.78
17260;BME280;8746;49.230;9.220;2023-02-10T06:25:30;102165.13;;;-7.03;96.21
17260;BME280;8746;49.230;9.220;2023-02-10T06:27:55;102164.81;;;-7.07;95.95
17260;BME280;8746;49.230;9.220;2023-02-10T06:30:21;102169.63;;;-7.12;95.71
17260;BME280;8746;49.230;9.220;2023-02-10T06:32:46;102174.88;;;-7.11;95.79
17260;BME280;8746;49.230;9.220;2023-02-10T06:35:12;102168.94;;;-7.10;95.52
17260;BME280;8746;49.230;9.220;2023-02-10T06:37:37;102169.53;;;-7.14;95.06
17260;BME280;8746;49.230;9.220;2023-02-10T06:40:04;102167.13;;;-7.24;94.55
17260;BME280;8746;49.230;9.220;2023-02-10T06:42:29;102178.63;;;-7.31;95.32
17260;BME280;8746;49.230;9.220;2023-02-10T06:44:55;102170.94;;;-7.31;96.74
17260;BME280;8746;49.230;9.220;2023-02-10T06:47:20;102171.94;;;-7.29;98.49
17260;BME280;8746;49.230;9.220;2023-02-10T06:49:46;102173.22;;;-7.22;99.28
17260;BME280;8746;49.230;9.220;2023-02-10T06:52:11;102178.53;;;-7.07;98.73
17260;BME280;8746;49.230;9.220;2023-02-10T06:54:36;102186.53;;;-7.02;98.19
17260;BME280;8746;49.230;9.220;2023-02-10T06:57:02;102181.56;;;-6.87;98.20
17260;BME280;8746;49.230;9.220;2023-02-10T06:59:28;102183.31;;;-6.86;97.53
17260;BME280;8746;49.230;9.220;2023-02-10T07:01:53;102180.91;;;-6.97;97.46
17260;BME280;8746;49.230;9.220;2023-02-10T07:04:26;102179.63;;;-6.90;97.34
17260;BME280;8746;49.230;9.220;2023-02-10T07:06:51;102179.78;;;-6.88;97.00
17260;BME280;8746;49.230;9.220;2023-02-10T07:09:16;102187.66;;;-6.85;96.54
17260;BME280;8746;49.230;9.220;2023-02-10T07:11:42;102185.13;;;-6.72;96.65
17260;BME280;8746;49.230;9.220;2023-02-10T07:14:07;102186.97;;;-6.83;97.05
17260;BME280;8746;49.230;9.220;2023-02-10T07:16:33;102187.28;;;-6.78;97.71
17260;BME280;8746;49.230;9.220;2023-02-10T07:18:59;102185.22;;;-6.70;97.52
17260;BME280;8746;49.230;9.220;2023-02-10T07:21:24;102182.94;;;-6.66;97.74
17260;BME280;8746;49.230;9.220;2023-02-10T07:23:49;102186.53;;;-6.64;97.18
17260;BME280;8746;49.230;9.220;2023-02-10T07:26:15;102190.50;;;-6.55;96.99
17260;BME280;8746;49.230;9.220;2023-02-10T07:28:43;102189.59;;;-6.56;97.35
17260;BME280;8746;49.230;9.220;2023-02-10T07:31:08;102188.50;;;-6.60;97.77
17260;BME280;8746;49.230;9.220;2023-02-10T07:33:34;102191.47;;;-6.53;98.10
17260;BME280;8746;49.230;9.220;2023-02-10T07:36:00;102188.34;;;-6.36;98.18
17260;BME280;8746;49.230;9.220;2023-02-10T07:38:27;102176.66;;;-6.31;98.15
17260;BME280;8746;49.230;9.220;2023-02-10T07:40:52;102181.41;;;-6.37;98.21
17260;BME280;8746;49.230;9.220;2023-02-10T07:43:18;102183.50;;;-6.18;97.88
17260;BME280;8746;49.230;9.220;2023-02-10T07:45:43;102184.84;;;-6.23;98.68
17260;BME280;8746;49.230;9.220;2023-02-10T07:48:09;102199.00;;;-6.03;98.81
17260;BME280;8746;49.230;9.220;2023-02-10T07:50:35;102192.94;;;-6.03;97.94
17260;BME280;8746;49.230;9.220;2023-02-10T07:53:00;102199.09;;;-5.73;97.31
17260;BME280;8746;49.230;9.220;2023-02-10T07:55:26;102192.72;;;-5.80;97.59
17260;BME280;8746;49.230;9.220;2023-02-10T07:57:51;102190.31;;;-5.76;97.85
17260;BME280;8746;49.230;9.220;2023-02-10T08:00:17;102189.34;;;-5.78;98.19
17260;BME280;8746;49.230;9.220;2023-02-10T08:02:43;102186.34;;;-5.71;97.72
17260;BME280;8746;49.230;9.220;2023-02-10T08:05:08;102185.53;;;-5.57;97.65
17260;BME280;8746;49.230;9.220;2023-02-10T08:07:35;102188.84;;;-5.44;97.04
17260;BME280;8746;49.230;9.220;2023-02-10T08:10:01;102183.97;;;-5.40;97.18
17260;BME280;8746;49.230;9.220;2023-02-10T08:12:27;102189.91;;;-5.41;97.47
17260;BME280;8746;49.230;9.220;2023-02-10T08:14:52;102197.63;;;-5.41;97.89
17260;BME280;8746;49.230;9.220;2023-02-10T08:17:17;102191.31;;;-5.46;97.72
17260;BME280;8746;49.230;9.220;2023-02-10T08:19:43;102188.53;;;-5.36;98.43
17260;BME280;8746;49.230;9.220;2023-02-10T08:22:08;102186.22;;;-5.31;98.57
17260;BME280;8746;49.230;9.220;2023-02-10T08:24:34;102194.31;;;-5.25;98.62
17260;BME280;8746;49.230;9.220;2023-02-10T08:27:00;102181.97;;;-5.31;99.10
17260;BME280;8746;49.230;9.220;2023-02-10T08:29:25;102184.31;;;-5.20;99.22
17260;BME280;8746;49.230;9.220;2023-02-10T08:31:51;102177.00;;;-4.99;99.47
17260;BME280;8746;49.230;9.220;2023-02-10T08:34:19;102174.66;;;-4.94;99.02
17260;BME280;8746;49.230;9.220;2023-02-10T08:36:45;102174.78;;;-4.78;98.69
17260;BME280;8746;49.230;9.220;2023-02-10T08:39:12;102177.88;;;-4.69;98.86
17260;BME280;8746;49.230;9.220;2023-02-10T08:41:38;102179.19;;;-4.45;98.05
17260;BME280;8746;49.230;9.220;2023-02-10T08:44:04;102182.84;;;-4.27;96.67
17260;BME280;8746;49.230;9.220;2023-02-10T08:46:30;102188.59;;;-4.31;96.61
17260;BME280;8746;49.230;9.220;2023-02-10T08:48:55;102189.94;;;-4.23;96.32
17260;BME280;8746;49.230;9.220;2023-02-10T08:51:20;102191.16;;;-4.16;96.43
17260;BME280;8746;49.230;9.220;2023-02-10T08:53:46;102201.63;;;-3.98;96.10
17260;BME280;8746;49.230;9.220;2023-02-10T08:56:16;102191.50;;;-3.95;95.75
17260;BME280;8746;49.230;9.220;2023-02-10T08:58:41;102212.13;;;-3.95;95.67
17260;BME280;8746;49.230;9.220;2023-02-10T09:01:12;102209.28;;;-3.68;95.48
17260;BME280;8746;49.230;9.220;2023-02-10T09:03:39;102209.88;;;-3.57;94.92
17260;BME280;8746;49.230;9.220;2023-02-10T09:06:05;102219.69;;;-3.50;94.43
17260;BME280;8746;49.230;9.220;2023-02-10T09:08:30;102223.56;;;-3.58;95.17
17260;BME280;8746;49.230;9.220;2023-02-10T09:10:55;102215.84;;;-3.42;94.20
17260;BME280;8746;49.230;9.220;2023-02-10T09:13:23;102217.47;;;-3.11;93.45
17260;BME280;8746;49.230;9.220;2023-02-10T09:15:48;102213.41;;;-2.89;92.84
17260;BME280;8746;49.230;9.220;2023-02-10T09:18:13;102217.53;;;-2.93;92.75
17260;BME280;8746;49.230;9.220;2023-02-10T09:20:39;102206.78;;;-2.84;92.24
17260;BME280;8746;49.230;9.220;2023-02-10T09:23:04;102208.88;;;-2.77;91.77
17260;BME280;8746;49.230;9.220;2023-02-10T09:25:30;102207.88;;;-2.62;90.62
17260;BME280;8746;49.230;9.220;2023-02-10T09:27:55;102207.69;;;-2.49;91.02
17260;BME280;8746;49.230;9.220;2023-02-10T09:30:23;102205.69;;;-2.36;89.82
17260;BME280;8746;49.230;9.220;2023-02-10T09:32:49;102205.06;;;-2.32;90.03
17260;BME280;8746;49.230;9.220;2023-02-10T09:35:14;102198.53;;;-2.24;88.71
17260;BME280;8746;49.230;9.220;2023-02-10T09:37:40;102202.38;;;-2.16;90.67
17260;BME280;8746;49.230;9.220;2023-02-10T09:40:05;102211.75;;;-2.18;92.09
17260;BME280;8746;49.230;9.220;2023-02-10T09:42:55;102210.91;;;-2.00;91.87
17260;BME280;8746;49.230;9.220;2023-02-10T09:45:26;102201.00;;;-1.71;90.22
17260;BME280;8746;49.230;9.220;2023-02-10T09:48:46;102203.59;;;-1.71;89.37
17260;BME280;8746;49.230;9.220;2023-02-10T09:54:11;102204.00;;;-1.05;88.95
17260;BME280;8746;49.230;9.220;2023-02-10T09:56:37;102218.72;;;-0.84;87.13
17260;BME280;8746;49.230;9.220;2023-02-10T09:59:06;102216.25;;;-0.40;85.59
17260;BME280;8746;49.230;9.220;2023-02-10T10:01:40;102221.38;;;0.02;83.34
17260;BME280;8746;49.230;9.220;2023-02-10T10:04:10;102223.84;;;0.43;82.33
17260;BME280;8746;49.230;9.220;2023-02-10T10:06:41;102212.19;;;0.78;80.66
17260;BME280;8746;49.230;9.220;2023-02-10T10:11:52;102201.94;;;0.83;76.18
17260;BME280;8746;49.230;9.220;2023-02-10T10:14:25;102204.66;;;1.10;76.19
17260;BME280;8746;49.230;9.220;2023-02-10T10:19:49;102193.72;;;1.47;74.21
17260;BME280;8746;49.230;9.220;2023-02-10T10:25:17;102191.91;;;2.56;72.33
17260;BME280;8746;49.230;9.220;2023-02-10T10:30:47;102179.78;;;2.57;70.52
17260;BME280;8746;49.230;9.220;2023-02-10T10:33:23;102178.00;;;2.86;70.29
17260;BME280;8746;49.230;9.220;2023-02-10T10:35:50;102172.28;;;3.68;67.55
17260;BME280;8746;49.230;9.220;2023-02-10T10:38:25;102177.50;;;3.68;67.20
17260;BME280;8746;49.230;9.220;2023-02-10T10:40:56;102177.28;;;3.97;65.46
17260;BME280;8746;49.230;9.220;2023-02-10T10:43:26;102181.25;;;4.20;65.46
17260;BME280;8746;49.230;9.220;2023-02-10T10:46:06;102181.94;;;4.51;63.64
17260;BME280;8746;49.230;9.220;2023-02-10T10:48:37;102177.91;;;4.67;62.19
17260;BME280;8746;49.230;9.220;2023-02-10T10:51:05;102174.50;;;5.18;61.89
17260;BME280;8746;49.230;9.220;2023-02-10T10:56:08;102180.53;;;4.67;61.98
17260;BME280;8746;49.230;9.220;2023-02-10T10:58:42;102177.78;;;4.60;62.56
17260;BME280;8746;49.230;9.220;2023-02-10T11:01:10;102171.78;;;5.10;60.89
17260;BME280;8746;49.230;9.220;2023-02-10T11:03:36;102175.09;;;5.52;60.63
17260;BME280;8746;49.230;9.220;2023-02-10T11:08:36;102168.19;;;5.05;61.13
17260;BME280;8746;49.230;9.220;2023-02-10T11:11:04;102171.25;;;4.84;62.72
17260;BME280;8746;49.230;9.220;2023-02-10T11:13:37;102167.72;;;4.80;62.39
17260;BME280;8746;49.230;9.220;2023-02-10T11:18:33;102167.09;;;5.43;60.23
17260;BME280;8746;49.230;9.220;2023-02-10T11:21:06;102162.75;;;4.94;60.18
17260;BME280;8746;49.230;9.220;2023-02-10T11:23:36;102164.09;;;4.31;61.81
17260;BME280;8746;49.230;9.220;2023-02-10T11:26:22;102164.16;;;4.34;64.04
17260;BME280;8746;49.230;9.220;2023-02-10T11:28:49;102162.44;;;4.35;64.51
17260;BME280;8746;49.230;9.220;2023-02-10T11:34:29;102162.31;;;3.53;66.15
17260;BME280;8746;49.230;9.220;2023-02-10T11:36:57;102155.59;;;3.27;67.21
17260;BME280;8746;49.230;9.220;2023-02-10T11:41:50;102148.19;;;3.09;68.36
17260;BME280;8746;49.230;9.220;2023-02-10T11:44:28;102144.56;;;3.03;68.52
17260;BME280;8746;49.230;9.220;2023-02-10T11:46:57;102138.31;;;3.32;68.42
17260;BME280;8746;49.230;9.220;2023-02-10T11:49:22;102145.63;;;3.45;67.98
17260;BME280;8746;49.230;9.220;2023-02-10T11:51:55;102134.34;;;3.46;67.87
17260;BME280;8746;49.230;9.220;2023-02-10T11:54:22;102141.91;;;3.35;67.50
17260;BME280;8746;49.230;9.220;2023-02-10T12:06:05;102129.22;;;3.16;68.28
17260;BME280;8746;49.230;9.220;2023-02-10T12:22:16;102108.66;;;4.05;66.31
17260;BME280;8746;49.230;9.220;2023-02-10T12:33:16;102095.00;;;3.39;67.36
17260;BME280;8746;49.230;9.220;2023-02-10T12:36:02;102096.09;;;3.48;67.83
17260;BME280;8746;49.230;9.220;2023-02-10T12:38:42;102096.47;;;3.27;67.81
17260;BME280;8746;49.230;9.220;2023-02-10T12:55:05;102081.47;;;3.18;66.93
17260;BME280;8746;49.230;9.220;2023-02-10T12:58:02;102081.50;;;3.20;67.16
17260;BME280;8746;49.230;9.220;2023-02-10T13:00:38;102073.13;;;3.33;66.39
17260;BME280;8746;49.230;9.220;2023-02-10T13:03:27;102067.75;;;3.26;66.56
17260;BME280;8746;49.230;9.220;2023-02-10T13:06:25;102075.59;;;3.27;66.26
17260;BME280;8746;49.230;9.220;2023-02-10T13:09:23;102071.47;;;3.37;66.09
17260;BME280;8746;49.230;9.220;2023-02-10T13:12:13;102064.59;;;3.39;66.48
17260;BME280;8746;49.230;9.220;2023-02-10T13:14:41;102070.66;;;3.40;66.49
17260;BME280;8746;49.230;9.220;2023-02-10T13:17:09;102071.19;;;3.25;66.07
17260;BME280;8746;49.230;9.220;2023-02-10T13:19:52;102068.59;;;3.25;66.51
17260;BME280;8746;49.230;9.220;2023-02-10T13:22:47;102069.72;;;3.36;67.02
17260;BME280;8746;49.230;9.220;2023-02-10T13:31:20;102062.56;;;3.65;66.02
17260;BME280;8746;49.230;9.220;2023-02-10T13:34:05;102069.97;;;3.47;66.18
17260;BME280;8746;49.230;9.220;2023-02-10T13:36:39;102077.66;;;3.41;66.42
17260;BME280;8746;49.230;9.220;2023-02-10T13:39:17;102072.81;;;3.56;66.07
17260;BME280;8746;49.230;9.220;2023-02-10T13:41:46;102070.81;;;3.46;66.37
17260;BME280;8746;49.230;9.220;2023-02-10T13:44:23;102066.28;;;3.39;67.23
17260;BME280;8746;49.230;9.220;2023-02-10T13:46:54;102060.31;;;3.43;66.87
17260;BME280;8746;49.230;9.220;2023-02-10T13:49:21;102063.47;;;3.66;66.97
17260;BME280;8746;49.230;9.220;2023-02-10T13:51:49;102051.44;;;3.74;66.60
17260;BME280;8746;49.230;9.220;2023-02-10T13:54:24;102063.28;;;3.99;65.24
17260;BME280;8746;49.230;9.220;2023-02-10T13:56:54;102059.41;;;3.80;64.45
17260;BME280;8746;49.230;9.220;2023-02-10T14:02:01;102062.56;;;3.65;65.13
17260;BME280;8746;49.230;9.220;2023-02-10T14:04:45;102057.34;;;3.65;64.50
17260;BME280;8746;49.230;9.220;2023-02-10T14:10:02;102059.72;;;3.94;65.54
17260;BME280;8746;49.230;9.220;2023-02-10T14:12:28;102053.69;;;3.98;65.75
17260;BME280;8746;49.230;9.220;2023-02-10T14:14:54;102056.44;;;4.05;65.51
17260;BME280;8746;49.230;9.220;2023-02-10T14:17:25;102046.69;;;3.96;65.67
17260;BME280;8746;49.230;9.220;2023-02-10T14:19:56;102052.63;;;3.90;66.11
17260;BME280;8746;49.230;9.220;2023-02-10T14:22:36;102050.91;;;3.89;65.39
17260;BME280;8746;49.230;9.220;2023-02-10T14:25:32;102042.94;;;3.83;65.51
17260;BME280;8746;49.230;9.220;2023-02-10T14:27:59;102047.34;;;3.85;65.49
17260;BME280;8746;49.230;9.220;2023-02-10T14:30:36;102051.56;;;3.80;65.67
17260;BME280;8746;49.230;9.220;2023-02-10T14:33:05;102045.47;;;3.80;65.34
17260;BME280;8746;49.230;9.220;2023-02-10T14:35:31;102040.50;;;3.92;64.68
17260;BME280;8746;49.230;9.220;2023-02-10T14:38:02;102037.28;;;4.04;65.51
17260;BME280;8746;49.230;9.220;2023-02-10T14:40:30;102034.66;;;4.03;65.85
17260;BME280;8746;49.230;9.220;2023-02-10T14:42:59;102037.84;;;3.89;66.07
17260;BME280;8746;49.230;9.220;2023-02-10T14:45:26;102033.34;;;3.82;65.53
17260;BME280;8746;49.230;9.220;2023-02-10T14:47:54;102032.41;;;3.78;66.06
17260;BME280;8746;49.230;9.220;2023-02-10T14:50:32;102032.81;;;4.00;65.92
17260;BME280;8746;49.230;9.220;2023-02-10T14:52:59;102032.78;;;3.98;66.10
17260;BME280;8746;49.230;9.220;2023-02-10T14:58:03;102023.28;;;4.02;65.53
17260;BME280;8746;49.230;9.220;2023-02-10T15:00:30;102021.50;;;3.99;65.39
17260;BME280;8746;49.230;9.220;2023-02-10T15:02:58;102029.28;;;3.96;65.47
17260;BME280;8746;49.230;9.220;2023-02-10T15:05:26;102030.88;;;3.90;65.17
17260;BME280;8746;49.230;9.220;2023-02-10T15:07:55;102035.28;;;3.92;64.96
17260;BME280;8746;49.230;9.220;2023-02-10T15:10:27;102030.06;;;3.92;64.97